createdAt,value
2022-10-16T00:01:07.932Z,0.35
2022-10-16T00:03:34.370Z,0.93
2022-10-16T00:06:00.789Z,0.68
2022-10-16T00:08:27.218Z,0.60
2022-10-16T00:10:53.658Z,1.20
2022-10-16T00:13:20.098Z,0.93
2022-10-16T00:15:46.520Z,1.10
2022-10-16T00:18:12.955Z,0.77
2022-10-16T00:20:39.377Z,0.70
2022-10-16T00:23:05.814Z,0.60
2022-10-16T00:25:32.237Z,0.75
2022-10-16T00:27:58.684Z,0.90
2022-10-16T00:30:25.117Z,0.60
2022-10-16T00:32:51.566Z,1.10
2022-10-16T00:35:17.993Z,0.60
2022-10-16T00:37:44.425Z,2.15
2022-10-16T00:40:10.857Z,1.27
2022-10-16T00:42:37.293Z,0.90
2022-10-16T00:45:03.722Z,1.73
2022-10-16T00:47:30.161Z,1.17
2022-10-16T00:49:56.601Z,1.08
2022-10-16T00:52:23.200Z,1.77
2022-10-16T00:54:49.822Z,0.68
2022-10-16T00:57:16.287Z,0.80
2022-10-16T00:59:42.747Z,0.98
2022-10-16T01:02:09.182Z,0.60
2022-10-16T01:04:35.627Z,0.55
2022-10-16T01:07:02.064Z,0.57
2022-10-16T01:09:28.504Z,0.47
2022-10-16T01:11:54.950Z,0.77
2022-10-16T01:14:21.398Z,0.57
2022-10-16T01:16:47.820Z,0.52
2022-10-16T01:19:14.266Z,0.57
2022-10-16T01:21:40.701Z,0.40
2022-10-16T01:24:07.145Z,0.52
2022-10-16T01:26:33.573Z,0.85
2022-10-16T01:29:00.071Z,1.02
2022-10-16T01:31:26.556Z,1.35
2022-10-16T01:36:20.336Z,1.02
2022-10-16T01:38:46.765Z,1.33
2022-10-16T01:41:13.217Z,1.48
2022-10-16T01:43:39.645Z,0.63
2022-10-16T01:46:06.083Z,0.93
2022-10-16T01:48:32.493Z,0.85
2022-10-16T01:50:58.925Z,0.60
2022-10-16T01:53:25.341Z,0.47
2022-10-16T01:55:51.762Z,0.60
2022-10-16T01:58:18.192Z,0.43
2022-10-16T02:00:44.713Z,0.52
2022-10-16T02:03:11.190Z,0.50
2022-10-16T02:05:37.633Z,1.02
2022-10-16T02:08:05.640Z,0.40
2022-10-16T02:10:32.872Z,0.55
2022-10-16T02:12:59.575Z,0.60
2022-10-16T02:15:26.010Z,0.50
2022-10-16T02:17:52.447Z,0.85
2022-10-16T02:20:18.868Z,0.68
2022-10-16T02:22:45.319Z,0.90
2022-10-16T02:25:11.751Z,0.60
2022-10-16T02:27:38.187Z,2.22
2022-10-16T02:30:04.624Z,0.77
2022-10-16T02:32:31.081Z,0.73
2022-10-16T02:34:57.500Z,1.08
2022-10-16T02:37:23.941Z,1.08
2022-10-16T02:39:50.352Z,1.02
2022-10-16T02:42:16.792Z,1.58
2022-10-16T02:44:43.212Z,1.15
2022-10-16T02:47:09.690Z,1.23
2022-10-16T02:49:36.165Z,0.93
2022-10-16T02:52:02.621Z,2.03
2022-10-16T02:54:29.049Z,1.30
2022-10-16T02:56:55.488Z,1.52
2022-10-16T02:59:21.914Z,1.52
2022-10-16T03:01:48.341Z,0.77
2022-10-16T03:04:14.767Z,0.60
2022-10-16T03:06:41.187Z,0.82
2022-10-16T03:09:07.617Z,1.08
2022-10-16T03:11:34.028Z,0.70
2022-10-16T03:14:00.477Z,1.15
2022-10-16T03:16:26.908Z,0.82
2022-10-16T03:18:53.350Z,0.73
2022-10-16T03:21:19.771Z,1.10
2022-10-16T03:23:46.204Z,0.90
2022-10-16T03:26:12.616Z,0.88
2022-10-16T03:28:39.105Z,1.27
2022-10-16T03:31:05.627Z,0.93
2022-10-16T03:33:32.067Z,0.70
2022-10-16T03:35:58.502Z,1.27
2022-10-16T03:38:24.937Z,0.95
2022-10-16T03:40:51.348Z,0.90
2022-10-16T03:43:17.791Z,0.80
2022-10-16T03:45:44.227Z,0.93
2022-10-16T03:48:10.664Z,0.52
2022-10-16T03:50:37.103Z,0.40
2022-10-16T03:53:03.529Z,0.45
2022-10-16T03:55:29.952Z,0.73
2022-10-16T03:57:56.388Z,0.50
2022-10-16T04:00:22.800Z,1.08
2022-10-16T04:02:49.256Z,0.50
2022-10-16T04:05:15.680Z,0.55
2022-10-16T04:07:42.105Z,0.85
2022-10-16T04:10:08.539Z,0.73
2022-10-16T04:12:34.986Z,0.60
2022-10-16T04:15:01.405Z,0.52
2022-10-16T04:17:28.370Z,1.20
2022-10-16T04:19:55.061Z,1.15
2022-10-16T04:22:21.534Z,0.80
2022-10-16T04:24:47.989Z,0.50
2022-10-16T04:27:14.403Z,0.70
2022-10-16T04:29:40.847Z,0.63
2022-10-16T04:32:07.285Z,0.55
2022-10-16T04:34:33.729Z,0.40
2022-10-16T04:37:00.151Z,0.60
2022-10-16T04:39:26.680Z,0.68
2022-10-16T04:41:53.109Z,0.70
2022-10-16T04:44:19.536Z,0.50
2022-10-16T04:46:45.987Z,0.73
2022-10-16T04:49:12.433Z,0.50
2022-10-16T04:51:38.858Z,1.60
2022-10-16T04:54:05.309Z,0.80
2022-10-16T04:56:31.752Z,0.70
2022-10-16T04:58:58.180Z,0.95
2022-10-16T05:01:24.613Z,0.68
2022-10-16T05:03:51.053Z,0.85
2022-10-16T05:06:17.463Z,1.48
2022-10-16T05:08:43.909Z,0.60
2022-10-16T05:11:10.351Z,0.75
2022-10-16T05:13:36.779Z,1.63
2022-10-16T05:16:03.195Z,1.02
2022-10-16T05:18:29.627Z,0.52
2022-10-16T05:20:56.045Z,0.73
2022-10-16T05:23:22.500Z,0.75
2022-10-16T05:25:48.933Z,0.47
2022-10-16T05:28:15.372Z,0.75
2022-10-16T05:30:41.791Z,0.55
2022-10-16T05:33:08.223Z,0.70
2022-10-16T05:35:34.654Z,0.50
2022-10-16T05:38:01.090Z,1.08
2022-10-16T05:40:27.520Z,0.40
2022-10-16T05:42:53.949Z,0.40
2022-10-16T05:45:20.374Z,0.60
2022-10-16T05:47:46.793Z,1.45
2022-10-16T05:50:13.240Z,0.85
2022-10-16T05:52:39.661Z,0.45
2022-10-16T05:55:06.113Z,0.80
2022-10-16T05:57:32.536Z,0.55
2022-10-16T05:59:58.972Z,0.73
2022-10-16T06:02:25.426Z,0.40
2022-10-16T06:04:51.870Z,0.70
2022-10-16T06:07:18.312Z,0.52
2022-10-16T06:09:44.742Z,0.60
2022-10-16T06:12:11.165Z,0.47
2022-10-16T06:14:37.651Z,0.63
2022-10-16T06:17:04.084Z,0.40
2022-10-16T06:19:30.527Z,0.65
2022-10-16T06:21:56.939Z,0.80
2022-10-16T06:24:23.376Z,0.68
2022-10-16T06:26:49.799Z,1.25
2022-10-16T06:29:16.262Z,0.60
2022-10-16T06:31:42.717Z,0.52
2022-10-16T06:34:09.180Z,1.42
2022-10-16T06:36:35.617Z,0.80
2022-10-16T06:39:02.040Z,1.20
2022-10-16T06:41:28.473Z,0.95
2022-10-16T06:43:54.910Z,0.60
2022-10-16T06:46:21.332Z,0.85
2022-10-16T06:48:47.768Z,0.77
2022-10-16T06:51:14.184Z,0.65
2022-10-16T06:54:01.235Z,1.58
2022-10-16T06:56:27.041Z,1.52
2022-10-16T06:58:53.479Z,0.90
2022-10-16T07:01:19.895Z,0.60
2022-10-16T07:03:46.334Z,0.68
2022-10-16T07:06:12.748Z,0.57
2022-10-16T07:08:39.176Z,0.60
2022-10-16T07:11:05.629Z,1.58
2022-10-16T07:13:32.121Z,0.68
2022-10-16T07:15:58.550Z,0.63
2022-10-16T07:18:25.031Z,0.63
2022-10-16T07:20:51.495Z,1.05
2022-10-16T07:23:17.926Z,0.65
2022-10-16T07:25:44.360Z,0.80
2022-10-16T07:28:10.787Z,0.40
2022-10-16T07:30:37.230Z,0.85
2022-10-16T07:33:03.646Z,0.73
2022-10-16T07:35:30.076Z,1.08
2022-10-16T07:37:56.504Z,0.73
2022-10-16T07:40:22.993Z,0.60
2022-10-16T07:42:49.432Z,1.20
2022-10-16T07:45:15.884Z,0.63
2022-10-16T07:47:42.312Z,0.70
2022-10-16T07:50:08.751Z,1.40
2022-10-16T07:52:35.194Z,0.73
2022-10-16T07:55:01.629Z,1.50
2022-10-16T07:57:28.369Z,0.90
2022-10-16T07:59:55.167Z,0.60
2022-10-16T08:02:21.586Z,0.73
2022-10-16T08:04:48.003Z,0.77
2022-10-16T08:07:14.441Z,0.70
2022-10-16T08:09:40.911Z,0.85
2022-10-16T08:12:07.349Z,1.25
2022-10-16T08:14:33.791Z,0.85
2022-10-16T08:17:00.233Z,1.02
2022-10-16T08:19:26.693Z,0.88
2022-10-16T08:21:53.125Z,1.23
2022-10-16T08:24:19.548Z,0.57
2022-10-16T08:26:45.974Z,0.88
2022-10-16T08:29:12.410Z,1.52
2022-10-16T08:31:38.855Z,1.33
2022-10-16T08:34:05.273Z,1.27
2022-10-16T08:36:31.715Z,1.08
2022-10-16T08:38:58.140Z,0.77
2022-10-16T08:41:24.581Z,2.00
2022-10-16T08:43:50.993Z,1.33
2022-10-16T08:46:17.434Z,0.75
2022-10-16T08:48:43.862Z,0.80
2022-10-16T08:51:10.304Z,0.93
2022-10-16T08:53:36.723Z,0.65
2022-10-16T08:56:03.144Z,2.25
2022-10-16T08:58:29.598Z,1.00
2022-10-16T09:00:56.060Z,1.30
2022-10-16T09:03:22.552Z,1.73
2022-10-16T09:05:48.993Z,2.13
2022-10-16T09:08:15.453Z,1.58
2022-10-16T09:10:41.863Z,1.83
2022-10-16T09:13:08.302Z,1.65
2022-10-16T09:15:34.755Z,0.70
2022-10-16T09:18:01.183Z,0.90
2022-10-16T09:20:27.641Z,3.50
2022-10-16T09:22:54.059Z,2.03
2022-10-16T09:25:20.981Z,1.42
2022-10-16T09:27:50.044Z,1.30
2022-10-16T09:30:16.479Z,0.93
2022-10-16T09:32:42.923Z,1.40
2022-10-16T09:35:09.344Z,2.97
2022-10-16T09:37:35.781Z,1.05
2022-10-16T09:40:05.264Z,0.80
2022-10-16T09:42:34.021Z,1.38
2022-10-16T09:45:00.449Z,2.33
2022-10-16T09:47:27.200Z,1.23
2022-10-16T09:49:53.832Z,0.80
2022-10-16T09:52:20.248Z,2.85
2022-10-16T09:54:46.696Z,1.02
2022-10-16T09:57:13.133Z,1.27
2022-10-16T09:59:39.579Z,1.35
2022-10-16T10:02:06.005Z,0.90
2022-10-16T10:04:32.418Z,2.15
2022-10-16T10:06:58.848Z,1.20
2022-10-16T10:09:25.277Z,0.65
2022-10-16T10:11:51.866Z,0.60
2022-10-16T10:14:18.353Z,1.15
2022-10-16T10:16:44.776Z,0.80
2022-10-16T10:19:11.208Z,1.55
2022-10-16T10:21:37.644Z,1.25
2022-10-16T10:24:04.133Z,1.10
2022-10-16T10:26:30.585Z,1.27
2022-10-16T10:28:57.088Z,1.60
2022-10-16T10:31:23.653Z,2.00
2022-10-16T10:33:50.098Z,1.08
2022-10-16T10:36:16.527Z,0.98
2022-10-16T10:38:42.981Z,0.80
2022-10-16T10:41:09.400Z,3.40
2022-10-16T10:43:35.831Z,3.38
2022-10-16T10:46:02.270Z,1.20
2022-10-16T10:51:00.049Z,1.13
2022-10-16T10:53:26.482Z,1.70
2022-10-16T10:55:52.902Z,1.35
2022-10-16T10:58:19.345Z,0.93
2022-10-16T11:00:45.770Z,1.98
2022-10-16T11:03:12.203Z,1.35
2022-10-16T11:05:38.666Z,2.45
2022-10-16T11:08:05.083Z,3.17
2022-10-16T11:10:31.539Z,1.30
2022-10-16T11:12:57.961Z,2.90
2022-10-16T11:15:24.402Z,2.15
2022-10-16T11:17:50.835Z,2.97
2022-10-16T11:20:17.277Z,2.25
2022-10-16T11:22:43.690Z,1.95
2022-10-16T11:25:10.113Z,8.30
2022-10-16T11:27:36.535Z,4.85
2022-10-16T11:30:02.960Z,3.25
2022-10-16T11:32:29.373Z,2.53
2022-10-16T11:34:55.813Z,1.20
2022-10-16T11:37:22.245Z,0.82
2022-10-16T11:39:48.663Z,1.65
2022-10-16T11:42:15.135Z,1.58
2022-10-16T11:44:41.544Z,2.83
2022-10-16T11:47:33.687Z,3.15
2022-10-16T11:49:54.391Z,4.22
2022-10-16T11:52:20.859Z,2.28
2022-10-16T11:54:47.294Z,1.75
2022-10-16T11:57:13.734Z,0.98
2022-10-16T11:59:40.174Z,3.28
2022-10-16T12:02:06.619Z,2.78
2022-10-16T12:04:33.044Z,2.30
2022-10-16T12:06:59.477Z,2.03
2022-10-16T12:09:25.887Z,1.73
2022-10-16T12:11:52.338Z,1.65
2022-10-16T12:14:18.765Z,2.30
2022-10-16T12:16:45.226Z,2.15
2022-10-16T12:19:11.701Z,3.58
2022-10-16T12:21:38.136Z,3.78
2022-10-16T12:24:04.718Z,2.83
2022-10-16T12:26:31.151Z,2.70
2022-10-16T12:28:57.684Z,1.45
2022-10-16T12:31:24.181Z,1.25
2022-10-16T12:33:50.603Z,1.70
2022-10-16T12:36:17.044Z,3.00
2022-10-16T12:38:43.461Z,2.60
2022-10-16T12:41:09.904Z,2.25
2022-10-16T12:43:36.329Z,1.98
2022-10-16T12:46:02.759Z,1.98
2022-10-16T12:48:36.961Z,1.48
2022-10-16T12:51:15.630Z,6.22
2022-10-16T12:53:42.061Z,4.60
2022-10-16T12:56:08.515Z,2.47
2022-10-16T12:58:34.932Z,3.70
2022-10-16T13:01:01.427Z,1.95
2022-10-16T13:03:27.868Z,1.27
2022-10-16T13:05:54.298Z,1.25
2022-10-16T13:08:20.733Z,2.42
2022-10-16T13:10:47.160Z,1.90
2022-10-16T13:13:13.596Z,3.60
2022-10-16T13:15:40.032Z,1.35
2022-10-16T13:18:06.482Z,1.25
2022-10-16T13:20:32.896Z,2.35
2022-10-16T13:22:59.320Z,3.25
2022-10-16T13:25:25.723Z,5.00
2022-10-16T13:27:52.150Z,2.63
2022-10-16T13:30:18.572Z,1.05
2022-10-16T13:32:45.043Z,2.17
2022-10-16T13:35:11.501Z,1.45
2022-10-16T13:37:37.939Z,1.35
2022-10-16T13:40:04.373Z,0.50
2022-10-16T13:42:30.801Z,0.93
2022-10-16T13:44:57.246Z,1.50
2022-10-16T13:47:23.886Z,2.60
2022-10-16T13:49:50.501Z,1.88
2022-10-16T13:52:16.939Z,1.75
2022-10-16T13:54:43.371Z,1.95
2022-10-16T13:57:26.279Z,2.28
2022-10-16T13:59:53.451Z,2.35
2022-10-16T14:02:19.985Z,1.48
2022-10-16T14:04:46.520Z,1.38
2022-10-16T14:07:12.938Z,1.73
2022-10-16T14:09:39.397Z,0.95
2022-10-16T14:12:05.887Z,1.88
2022-10-16T14:14:32.308Z,1.17
2022-10-16T14:16:58.758Z,0.65
2022-10-16T14:19:25.182Z,1.88
2022-10-16T14:21:51.623Z,3.00
2022-10-16T14:24:18.040Z,0.77
2022-10-16T14:26:49.685Z,1.40
2022-10-16T14:29:17.258Z,0.98
2022-10-16T14:31:43.682Z,1.10
2022-10-16T14:34:10.137Z,0.63
2022-10-16T14:36:36.595Z,1.63
2022-10-16T14:39:03.030Z,3.92
2022-10-16T14:41:29.457Z,1.38
2022-10-16T14:43:55.883Z,1.45
2022-10-16T14:48:53.643Z,2.67
2022-10-16T14:51:20.083Z,1.13
2022-10-16T14:53:46.515Z,0.40
2022-10-16T14:56:12.959Z,0.40
2022-10-16T14:58:39.389Z,0.82
2022-10-16T15:01:05.830Z,1.15
2022-10-16T15:03:32.328Z,0.55
2022-10-16T15:05:58.753Z,0.95
2022-10-16T15:08:25.205Z,1.10
2022-10-16T15:10:51.616Z,0.20
2022-10-16T15:13:18.055Z,0.77
2022-10-16T15:15:44.475Z,0.75
2022-10-16T15:18:10.934Z,0.32
2022-10-16T15:20:37.341Z,1.17
2022-10-16T15:23:03.781Z,0.80
2022-10-16T15:25:30.203Z,0.52
2022-10-16T15:27:56.628Z,0.80
2022-10-16T15:30:23.044Z,0.35
2022-10-16T15:32:49.468Z,1.05
2022-10-16T15:35:15.876Z,0.68
2022-10-16T15:37:42.309Z,0.40
2022-10-16T15:40:08.729Z,1.00
2022-10-16T15:42:35.177Z,0.60
2022-10-16T15:45:01.611Z,0.85
2022-10-16T15:47:28.032Z,0.55
2022-10-16T15:49:54.446Z,1.10
2022-10-16T15:52:20.867Z,1.13
2022-10-16T15:54:51.764Z,0.40
2022-10-16T15:57:20.708Z,0.65
2022-10-16T15:59:47.169Z,0.75
2022-10-16T16:02:13.669Z,0.30
2022-10-16T16:04:43.852Z,0.38
2022-10-16T16:07:10.935Z,0.32
2022-10-16T16:09:37.359Z,0.38
2022-10-16T16:12:03.796Z,0.30
2022-10-16T16:14:30.215Z,0.70
2022-10-16T16:16:56.654Z,0.22
2022-10-16T16:19:23.102Z,0.70
2022-10-16T16:21:49.533Z,0.20
2022-10-16T16:24:15.987Z,0.30
2022-10-16T16:26:42.407Z,0.20
2022-10-16T16:29:08.939Z,0.50
2022-10-16T16:31:35.482Z,1.25
2022-10-16T16:34:01.919Z,0.68
2022-10-16T16:36:28.358Z,1.33
2022-10-16T16:38:54.793Z,0.52
2022-10-16T16:41:21.212Z,0.70
2022-10-16T16:43:47.638Z,0.70
2022-10-16T16:46:14.095Z,1.15
2022-10-16T16:48:40.554Z,1.05
2022-10-16T16:51:06.985Z,0.57
2022-10-16T16:53:33.418Z,0.35
2022-10-16T16:56:02.389Z,0.38
2022-10-16T16:58:31.212Z,1.23
2022-10-16T17:01:18.860Z,0.40
2022-10-16T17:06:15.398Z,0.60
2022-10-16T17:08:41.828Z,0.45
2022-10-16T17:11:08.240Z,0.45
2022-10-16T17:13:34.667Z,0.77
2022-10-16T17:16:01.088Z,0.40
2022-10-16T17:18:27.531Z,0.30
2022-10-16T17:20:53.948Z,0.73
2022-10-16T17:23:20.393Z,0.28
2022-10-16T17:25:46.825Z,0.30
2022-10-16T17:28:13.255Z,1.17
2022-10-16T17:30:39.686Z,0.40
2022-10-16T17:33:06.113Z,0.77
2022-10-16T17:35:32.524Z,0.88
2022-10-16T17:37:58.969Z,0.52
2022-10-16T17:40:25.387Z,0.25
2022-10-16T17:42:51.847Z,0.40
2022-10-16T17:45:18.275Z,0.50
2022-10-16T17:47:44.719Z,0.63
2022-10-16T17:50:14.853Z,0.35
2022-10-16T17:52:42.243Z,0.57
2022-10-16T17:55:08.679Z,0.73
2022-10-16T17:57:35.108Z,0.40
2022-10-16T18:00:01.548Z,0.50
2022-10-16T18:02:28.315Z,1.42
2022-10-16T18:04:54.993Z,0.93
2022-10-16T18:07:21.411Z,0.57
2022-10-16T18:10:11.188Z,1.02
2022-10-16T18:12:34.232Z,0.20
2022-10-16T18:15:00.665Z,0.50
2022-10-16T18:17:27.215Z,0.28
2022-10-16T18:19:53.918Z,0.68
2022-10-16T18:22:20.343Z,1.00
2022-10-16T18:24:46.768Z,0.90
2022-10-16T18:27:13.231Z,0.80
2022-10-16T18:29:39.685Z,0.60
2022-10-16T18:32:06.137Z,1.67
2022-10-16T18:34:32.565Z,0.60
2022-10-16T18:36:59.017Z,0.70
2022-10-16T18:39:25.455Z,0.85
2022-10-16T18:41:51.876Z,0.55
2022-10-16T18:46:49.660Z,0.93
2022-10-16T18:49:16.106Z,1.05
2022-10-16T18:51:42.536Z,0.77
2022-10-16T18:54:08.974Z,1.50
2022-10-16T18:56:35.396Z,1.58
2022-10-16T18:59:01.819Z,0.63
2022-10-16T19:01:28.332Z,1.70
2022-10-16T19:03:54.848Z,0.80
2022-10-16T19:06:21.271Z,1.20
2022-10-16T19:08:47.712Z,0.85
2022-10-16T19:11:14.133Z,0.38
2022-10-16T19:13:40.561Z,0.50
2022-10-16T19:16:19.737Z,0.70
2022-10-16T19:18:47.053Z,0.77
2022-10-16T19:21:13.500Z,1.60
2022-10-16T19:23:39.941Z,0.90
2022-10-16T19:26:06.353Z,0.60
2022-10-16T19:28:32.803Z,0.60
2022-10-16T19:30:59.236Z,0.63
2022-10-16T19:33:25.660Z,0.60
2022-10-16T19:35:52.123Z,0.77
2022-10-16T19:38:18.531Z,0.57
2022-10-16T19:40:44.966Z,0.55
2022-10-16T19:43:11.388Z,0.52
2022-10-16T19:45:37.828Z,0.65
2022-10-16T19:48:04.273Z,1.08
2022-10-16T19:50:30.713Z,0.47
2022-10-16T19:52:57.125Z,0.50
2022-10-16T19:55:23.580Z,1.63
2022-10-16T19:57:50.008Z,0.70
2022-10-16T20:00:16.462Z,0.98
2022-10-16T20:02:42.880Z,1.13
2022-10-16T20:05:09.316Z,0.85
2022-10-16T20:07:36.098Z,1.02
2022-10-16T20:10:02.691Z,2.22
2022-10-16T20:12:29.130Z,0.80
2022-10-16T20:14:55.535Z,1.02
2022-10-16T20:17:21.982Z,0.70
2022-10-16T20:19:48.404Z,1.05
2022-10-16T20:22:14.852Z,1.58
2022-10-16T20:24:41.263Z,2.22
2022-10-16T20:27:07.717Z,1.35
2022-10-16T20:29:34.156Z,2.65
2022-10-16T20:32:00.594Z,0.90
2022-10-16T20:34:27.061Z,1.23
2022-10-16T20:36:53.575Z,1.77
2022-10-16T20:39:19.994Z,1.17
2022-10-16T20:41:46.437Z,1.00
2022-10-16T20:44:12.862Z,1.52
2022-10-16T20:46:39.299Z,1.58
2022-10-16T20:49:11.197Z,1.30
2022-10-16T20:54:14.441Z,1.35
2022-10-16T20:56:40.884Z,2.47
2022-10-16T20:59:07.327Z,2.95
2022-10-16T21:01:33.805Z,1.92
2022-10-16T21:04:00.270Z,2.30
2022-10-16T21:06:26.713Z,2.28
2022-10-16T21:08:53.162Z,3.85
2022-10-16T21:11:19.610Z,3.97
2022-10-16T21:13:46.101Z,3.15
2022-10-16T21:16:12.701Z,3.80
2022-10-16T21:18:44.095Z,4.47
2022-10-16T21:21:10.940Z,3.22
2022-10-16T21:23:37.377Z,3.45
2022-10-16T21:26:03.833Z,2.70
2022-10-16T21:28:30.288Z,1.52
2022-10-16T21:30:56.781Z,2.13
2022-10-16T21:33:23.212Z,1.83
2022-10-16T21:35:49.650Z,1.23
2022-10-16T21:38:16.101Z,2.30
2022-10-16T21:40:42.523Z,1.38
2022-10-16T21:43:08.947Z,1.55
2022-10-16T21:45:35.365Z,3.40
2022-10-16T21:48:01.799Z,2.60
2022-10-16T21:50:28.249Z,2.33
2022-10-16T21:52:54.708Z,4.85
2022-10-16T21:55:21.142Z,3.05
2022-10-16T21:57:47.580Z,2.35
2022-10-16T22:00:14.011Z,2.55
2022-10-16T22:02:40.428Z,2.63
2022-10-16T22:05:06.862Z,3.15
2022-10-16T22:07:33.302Z,3.42
2022-10-16T22:09:59.745Z,2.45
2022-10-16T22:12:26.193Z,1.80
2022-10-16T22:14:52.625Z,3.17
2022-10-16T22:17:19.056Z,2.20
2022-10-16T22:19:45.478Z,2.38
2022-10-16T22:22:11.915Z,3.28
2022-10-16T22:24:38.340Z,2.92
2022-10-16T22:27:04.773Z,2.42
2022-10-16T22:29:31.195Z,2.40
2022-10-16T22:31:57.653Z,4.45
2022-10-16T22:34:24.080Z,3.75
2022-10-16T22:36:50.512Z,3.17
2022-10-16T22:39:16.961Z,3.55
2022-10-16T22:41:43.379Z,2.95
2022-10-16T22:44:09.818Z,2.67
2022-10-16T22:46:36.251Z,2.83
2022-10-16T22:49:02.684Z,2.63
2022-10-16T22:51:29.101Z,3.45
2022-10-16T22:53:55.532Z,3.70
2022-10-16T22:56:21.986Z,3.47
2022-10-16T22:58:48.436Z,5.07
2022-10-16T23:01:14.884Z,2.88
2022-10-16T23:03:41.336Z,3.20
2022-10-16T23:06:07.769Z,2.63
2022-10-16T23:08:34.201Z,2.85
2022-10-16T23:11:00.619Z,4.90
2022-10-16T23:13:27.052Z,2.40
2022-10-16T23:15:53.489Z,2.00
2022-10-16T23:18:19.932Z,1.95
2022-10-16T23:20:46.365Z,2.10
2022-10-16T23:23:12.813Z,1.70
2022-10-16T23:25:39.232Z,1.90
2022-10-16T23:28:05.703Z,1.95
2022-10-16T23:30:32.183Z,1.60
2022-10-16T23:32:58.613Z,2.10
2022-10-16T23:35:25.031Z,1.35
2022-10-16T23:37:51.475Z,0.80
2022-10-16T23:40:17.907Z,1.35
2022-10-16T23:42:44.336Z,1.08
2022-10-16T23:45:10.768Z,1.10
2022-10-16T23:47:37.192Z,1.10
2022-10-16T23:50:03.616Z,2.28
2022-10-16T23:52:30.050Z,2.17
2022-10-16T23:54:56.470Z,1.00
2022-10-16T23:57:22.911Z,1.30
2022-10-16T23:59:49.357Z,1.88
